Forest City, Pennsylvania
Current Conditions -  °F | °C
As of 3:54 PM on Saturday 20 Dec 2014 (Local Time) from KAVP Reporting Station
Overcast Overcast  
Wind Chill: 31°   Ceiling: 2500
Heat Index: 31°   Visibility: 10mi
Dew Point: 20°   Wind: 3mph
Humidity: 64%   Direction: 340°NNW
Pressure: 30.21"   Gusts: NA
Location:  41.65°N, 75.47°W
Report Text: KAVP 202054Z AUTO 34003KT 10SM OVC025 M01/M07 A3021 RMK AO2 SLP240 T10061067 53000
Loading
Personal Weather Stations






























Interactive Weather Map New forecast layout! Learn more

10-Day Weather Forecast

Advertisements
Track Severe Weather on mobile